Winchmore Hill, United Kingdom
Current Conditions -  °F | °C
As of 6:20 AM on Sunday 26 Oct 2014 (Local Time) from EGLC Reporting Station
Clear Clear  
Wind Chill: 13°   Ceiling: Unl
Heat Index: 13°   Visibility: 6mi
Dew Point:   Wind: 9mph
Humidity: 72%   Direction: 220°SW
Pressure: 30.15"   Gusts: NA
Location:  51.64°N, 0.1°W
Report Text: EGLC 260520Z AUTO 22008KT 9999 NCD 13/08 Q1021
Loading
Personal Weather Stations






























Interactive Weather Map
Tropical Storm Tracking
New forecast layout! Learn more

10-Day Weather Forecast

Advertisements
Track Severe Weather on mobile